Time;durP1;ratioP1;P1;durP2;ratioP2;P2;SDS_P1;SDS_P2;PMS_P1;PMS_P2;Temp;Humidity;BMP_temperature;BMP_pressure;BME280_temperature;BME280_humidity;BME280_pressure;Samples;Min_cycle;Max_cycle;Signal;HPM_P1;HPM_P2
2021/08/11 00:22:22;;;;;;;6.93;5.13;;;;;;;17.02;76.53;100534.22;5036883;28;20056;-62
2021/08/11 00:24:49;;;;;;;7.10;5.50;;;;;;;16.99;76.91;100529.31;5053085;28;20052;-62
2021/08/11 00:27:16;;;;;;;6.95;5.50;;;;;;;17.00;77.12;100528.94;5052447;28;20053;-62
2021/08/11 00:29:43;;;;;;;7.50;5.25;;;;;;;17.01;77.36;100524.97;5052674;28;20057;-61
2021/08/11 00:32:11;;;;;;;9.73;6.30;;;;;;;17.04;77.13;100531.88;5052084;28;20060;-62
2021/08/11 00:34:38;;;;;;;8.50;5.93;;;;;;;16.98;77.44;100533.28;5052324;28;20053;-62
2021/08/11 00:37:06;;;;;;;6.72;5.68;;;;;;;16.99;77.10;100535.75;5051689;28;20053;-61
2021/08/11 00:39:35;;;;;;;8.88;6.22;;;;;;;17.03;77.48;100531.06;5048086;28;20059;-62
2021/08/11 00:42:02;;;;;;;9.98;5.57;;;;;;;17.02;77.13;100531.41;5035838;28;20058;-62
2021/08/11 00:44:29;;;;;;;9.10;6.20;;;;;;;17.07;77.03;100535.97;5032339;28;20057;-60
2021/08/11 00:46:57;;;;;;;10.98;6.50;;;;;;;17.05;77.04;100536.34;5032768;28;20056;-61
2021/08/11 00:49:24;;;;;;;7.75;5.93;;;;;;;17.05;76.74;100539.16;5034423;28;20046;-61
2021/08/11 00:51:52;;;;;;;7.65;5.82;;;;;;;17.02;76.51;100539.84;5032537;28;20064;-62
2021/08/11 00:54:21;;;;;;;9.02;6.00;;;;;;;16.95;76.58;100534.03;5039115;28;20049;-61
2021/08/11 00:56:52;;;;;;;8.48;6.22;;;;;;;16.88;76.60;100534.59;5052120;28;20057;-62
2021/08/11 00:59:22;;;;;;;8.48;6.38;;;;;;;16.83;76.46;100534.88;5035967;28;20080;-62
2021/08/11 01:01:50;;;;;;;10.25;7.07;;;;;;;16.77;76.49;100533.44;5045104;28;20057;-62
2021/08/11 01:04:19;;;;;;;12.52;7.93;;;;;;;16.72;76.55;100537.31;5052217;28;20056;-62
2021/08/11 01:06:47;;;;;;;9.65;7.65;;;;;;;16.67;76.76;100533.94;5052133;28;20520;-62
2021/08/11 01:09:16;;;;;;;11.80;7.57;;;;;;;16.61;76.57;100534.19;5036897;28;20049;-61
2021/08/11 01:11:45;;;;;;;10.63;8.05;;;;;;;16.54;76.71;100530.31;5032691;28;20403;-63
2021/08/11 01:14:15;;;;;;;12.27;8.13;;;;;;;16.48;76.72;100532.53;5032619;28;20414;-62
2021/08/11 01:16:43;;;;;;;12.82;8.15;;;;;;;16.44;76.67;100525.97;5032496;28;20049;-63
2021/08/11 01:19:10;;;;;;;11.23;7.63;;;;;;;16.40;76.77;100536.31;5046066;28;20071;-63
2021/08/11 01:21:45;;;;;;;10.65;8.02;;;;;;;16.35;76.82;100536.53;5051763;28;20405;-63
2021/08/11 01:24:20;;;;;;;14.57;9.15;;;;;;;16.32;76.80;100537.25;5051954;28;20049;-63
2021/08/11 01:27:06;;;;;;;10.65;7.38;;;;;;;16.27;76.83;100537.47;5052133;28;20053;-63
2021/08/11 01:29:51;;;;;;;10.32;7.05;;;;;;;16.22;77.24;100553.41;5051973;28;20064;-62
2021/08/11 01:32:33;;;;;;;10.05;7.03;;;;;;;16.16;77.01;100542.75;5051889;28;20410;-63
2021/08/11 01:35:03;;;;;;;9.80;7.10;;;;;;;16.12;77.05;100548.25;5050446;28;20060;-63
2021/08/11 01:37:35;;;;;;;10.57;7.53;;;;;;;16.06;77.09;100544.03;5050058;28;20061;-63
2021/08/11 01:40:03;;;;;;;10.68;7.35;;;;;;;16.03;77.12;100542.75;5051991;28;20053;-63
2021/08/11 01:42:36;;;;;;;11.00;7.22;;;;;;;15.99;77.30;100552.22;5051451;28;20060;-62
2021/08/11 01:45:11;;;;;;;10.75;7.30;;;;;;;15.97;77.10;100551.75;5046117;28;20049;-62
2021/08/11 01:47:43;;;;;;;12.18;7.57;;;;;;;15.93;77.20;100557.22;5055225;28;20059;-62
2021/08/11 01:50:15;;;;;;;10.20;7.25;;;;;;;15.92;76.91;100555.59;5056051;28;20053;-62
2021/08/11 01:52:45;;;;;;;9.20;7.07;;;;;;;15.90;77.18;100557.13;5055738;28;20057;-62
2021/08/11 01:55:14;;;;;;;11.63;7.00;;;;;;;15.89;77.22;100561.09;5052377;28;20075;-62
2021/08/11 01:57:47;;;;;;;10.80;8.07;;;;;;;15.88;77.05;100559.47;5055836;28;20053;-62
2021/08/11 02:00:15;;;;;;;12.55;7.90;;;;;;;15.86;77.00;100565.44;5055637;28;20044;-62
2021/08/11 02:02:45;;;;;;;10.43;6.57;;;;;;;15.82;77.26;100568.09;5055518;28;20049;-62
2021/08/11 02:05:15;;;;;;;10.30;7.43;;;;;;;15.81;77.40;100577.72;5042386;28;20064;-62
2021/08/11 02:07:46;;;;;;;11.73;8.15;;;;;;;15.80;77.95;100559.22;5035785;28;20053;-62
2021/08/11 02:10:15;;;;;;;10.80;7.53;;;;;;;15.82;77.85;100562.50;5035695;28;20153;-62
2021/08/11 02:12:43;;;;;;;13.07;8.20;;;;;;;15.81;77.88;100572.09;5035910;28;20049;-62
2021/08/11 02:15:12;;;;;;;11.57;7.63;;;;;;;15.87;77.95;100563.44;5036805;28;20520;-62
2021/08/11 02:17:40;;;;;;;10.20;7.75;;;;;;;15.88;78.02;100571.53;5035599;28;20053;-63
2021/08/11 02:20:10;;;;;;;9.60;7.60;;;;;;;15.89;78.00;100570.34;5036309;28;20056;-62
2021/08/11 02:22:39;;;;;;;;;;;;;;;15.85;77.71;100566.59;5036182;28;20053;-63
2021/08/11 02:25:08;;;;;;;9.95;7.55;;;;;;;15.94;78.22;100566.50;5050535;28;19928;-62
2021/08/11 02:27:42;;;;;;;11.95;8.80;;;;;;;15.98;78.69;100567.41;5055360;28;20060;-63
2021/08/11 02:30:13;;;;;;;14.40;9.70;;;;;;;16.06;78.88;100565.69;5055068;28;20056;-63
2021/08/11 02:32:45;;;;;;;15.05;10.45;;;;;;;16.12;79.16;100559.47;5054944;28;20057;-63
2021/08/11 02:35:18;;;;;;;14.13;10.40;;;;;;;16.18;79.12;100568.50;5039525;28;20053;-62
2021/08/11 02:37:55;;;;;;;22.92;13.48;;;;;;;16.21;79.36;100565.00;5034758;28;20065;-62
2021/08/11 02:40:33;;;;;;;21.80;12.15;;;;;;;16.26;79.47;100567.59;5034979;28;20054;-63
2021/08/11 02:43:07;;;;;;;17.40;10.50;;;;;;;16.25;79.37;100565.94;5035048;28;20076;-63
2021/08/11 02:45:39;;;;;;;17.42;11.05;;;;;;;16.34;79.73;100560.22;5052401;28;20450;-63
2021/08/11 02:48:12;;;;;;;14.88;10.20;;;;;;;16.43;79.41;100563.72;5046023;28;20049;-63
2021/08/11 02:50:43;;;;;;;13.75;8.88;;;;;;;16.44;79.00;100568.16;5047632;28;20056;-63
2021/08/11 02:53:16;;;;;;;14.45;8.80;;;;;;;16.43;78.54;100563.72;5055208;28;20508;-63
2021/08/11 02:55:44;;;;;;;14.65;9.38;;;;;;;16.46;78.09;100556.56;5052641;28;20049;-63
2021/08/11 02:58:12;;;;;;;16.23;9.50;;;;;;;16.49;77.53;100555.88;5038830;28;20406;-62
2021/08/11 03:00:40;;;;;;;16.65;10.00;;;;;;;16.45;77.16;100550.13;5046218;28;20053;-62
2021/08/11 03:03:09;;;;;;;18.08;11.32;;;;;;;16.36;77.38;100549.44;5054666;28;20060;-62
2021/08/11 03:05:36;;;;;;;23.05;12.10;;;;;;;16.24;77.60;100544.63;5054013;28;20059;-62
2021/08/11 03:08:04;;;;;;;21.75;13.27;;;;;;;16.23;77.57;100537.34;5054283;28;20056;-62
2021/08/11 03:10:34;;;;;;;19.23;11.80;;;;;;;16.14;77.63;100540.28;5054091;28;20048;-62
2021/08/11 03:13:01;;;;;;;26.35;14.05;;;;;;;16.09;77.88;100545.34;5053984;28;20045;-61
2021/08/11 03:15:30;;;;;;;25.70;12.57;;;;;;;16.02;77.74;100540.28;5038999;28;20060;-61
2021/08/11 03:17:57;;;;;;;21.60;12.77;;;;;;;15.97;77.98;100554.56;5034274;28;20053;-61
2021/08/11 03:20:24;;;;;;;19.73;12.02;;;;;;;15.96;77.76;100555.75;5046549;28;20057;-61
2021/08/11 03:22:52;;;;;;;22.15;13.32;;;;;;;15.94;77.88;100558.06;5045669;28;20057;-61
2021/08/11 03:25:19;;;;;;;30.08;13.85;;;;;;;15.91;78.12;100547.53;5035219;28;20049;-61
2021/08/11 03:27:48;;;;;;;25.38;12.93;;;;;;;15.88;77.80;100545.44;5034072;28;20387;-61
2021/08/11 03:30:15;;;;;;;21.63;12.70;;;;;;;15.80;78.22;100550.78;5034099;28;20056;-61
2021/08/11 03:32:43;;;;;;;26.75;14.30;;;;;;;15.81;78.03;100549.63;5034270;28;20053;-61
2021/08/11 03:35:10;;;;;;;21.85;13.60;;;;;;;15.77;77.74;100543.06;5048863;28;20052;-61
2021/08/11 03:37:38;;;;;;;26.63;15.60;;;;;;;15.72;77.71;100550.88;5053800;28;20390;-61
2021/08/11 03:40:06;;;;;;;30.73;15.38;;;;;;;15.69;77.70;100541.13;5053891;28;20045;-62
2021/08/11 03:42:34;;;;;;;27.33;15.13;;;;;;;15.66;77.71;100547.44;5053746;28;20068;-62
2021/08/11 03:45:02;;;;;;;31.55;15.32;;;;;;;15.64;77.46;100555.38;5040559;28;20061;-61
2021/08/11 03:47:30;;;;;;;26.48;13.60;;;;;;;15.61;77.46;100553.28;5033856;28;20057;-63
2021/08/11 03:49:57;;;;;;;27.33;13.93;;;;;;;15.55;77.60;100563.91;5033931;28;20056;-61
2021/08/11 03:52:24;;;;;;;28.50;13.90;;;;;;;15.55;77.57;100563.09;5033778;28;20042;-62
2021/08/11 03:54:52;;;;;;;31.65;15.25;;;;;;;15.54;77.37;100564.25;5033664;28;20430;-61
2021/08/11 03:57:19;;;;;;;22.63;13.65;;;;;;;15.51;77.73;100568.56;5033335;28;20479;-62
2021/08/11 03:59:46;;;;;;;29.17;14.48;;;;;;;15.49;78.01;100570.09;5033278;28;20059;-62
2021/08/11 04:02:15;;;;;;;24.35;13.48;;;;;;;15.49;78.03;100568.09;5033182;28;20410;-62
2021/08/11 04:04:42;;;;;;;25.53;15.03;;;;;;;15.47;78.21;100578.03;5033721;28;20406;-61
2021/08/11 04:07:10;;;;;;;24.15;14.45;;;;;;;15.52;78.16;100575.03;5047999;28;20054;-59
2021/08/11 04:09:37;;;;;;;24.98;14.18;;;;;;;15.57;78.35;100578.41;5033238;28;20045;-61
2021/08/11 04:12:05;;;;;;;22.40;13.07;;;;;;;15.62;78.35;100574.56;5032981;28;20057;-61
2021/08/11 04:14:32;;;;;;;21.27;12.98;;;;;;;15.68;78.24;100573.19;5034114;28;20388;-61
2021/08/11 04:17:00;;;;;;;21.52;12.75;;;;;;;15.70;78.34;100579.28;5035264;28;20053;-62
2021/08/11 04:19:28;;;;;;;22.75;13.73;;;;;;;15.77;78.70;100575.91;5053405;28;20056;-61
2021/08/11 04:21:56;;;;;;;23.65;14.07;;;;;;;15.87;79.12;100574.66;5053039;28;20060;-61
2021/08/11 04:24:23;;;;;;;19.27;12.77;;;;;;;15.95;79.51;100577.38;5042806;28;20057;-61
2021/08/11 04:26:50;;;;;;;16.27;9.95;;;;;;;16.07;78.98;100579.41;5032799;28;20057;-62
2021/08/11 04:29:18;;;;;;;15.85;9.70;;;;;;;16.23;78.79;100573.88;5033110;28;20065;-62
2021/08/11 04:31:45;;;;;;;12.15;8.60;;;;;;;16.35;78.24;100579.53;5033007;28;20049;-62
2021/08/11 04:34:12;;;;;;;12.88;8.52;;;;;;;16.45;77.85;100575.44;5038664;28;20049;-61
2021/08/11 04:36:41;;;;;;;12.93;8.73;;;;;;;16.56;77.06;100573.78;5051878;28;20148;-61
2021/08/11 04:39:08;;;;;;;16.67;10.83;;;;;;;16.63;76.86;100570.38;5052646;28;20057;-61
2021/08/11 04:41:36;;;;;;;16.17;11.10;;;;;;;16.74;76.57;100568.72;5052766;28;20413;-61
2021/08/11 04:44:06;;;;;;;12.88;10.43;;;;;;;16.82;76.56;100575.44;5051562;28;20052;-61
2021/08/11 04:46:33;;;;;;;7.25;5.90;;;;;;;16.90;75.59;100563.19;5052369;28;20521;-61
2021/08/11 04:49:01;;;;;;;8.13;5.00;;;;;;;16.94;74.46;100558.50;5052864;28;20052;-61
2021/08/11 04:51:28;;;;;;;7.93;5.75;;;;;;;16.90;74.08;100563.19;5052505;28;20053;-61
2021/08/11 04:53:57;;;;;;;8.75;6.00;;;;;;;17.06;73.90;100568.09;5050608;28;20045;-61
2021/08/11 04:56:25;;;;;;;7.60;5.50;;;;;;;17.17;73.71;100563.59;5032756;28;20061;-61
2021/08/11 04:58:52;;;;;;;7.63;5.28;;;;;;;17.27;72.66;100567.91;5032523;28;20061;-61
2021/08/11 05:01:20;;;;;;;8.98;5.20;;;;;;;17.34;71.91;100568.13;5032766;28;20509;-61
2021/08/11 05:03:47;;;;;;;8.93;5.10;;;;;;;17.41;71.77;100574.78;5033801;28;20417;-62
2021/08/11 05:06:17;;;;;;;7.97;5.57;;;;;;;17.42;71.38;100569.97;5043496;28;20402;-62
2021/08/11 05:08:45;;;;;;;8.10;6.32;;;;;;;17.34;71.44;100574.56;5037526;28;20054;-62
2021/08/11 05:11:14;;;;;;;10.43;6.45;;;;;;;17.32;71.62;100576.91;5036009;28;20045;-61
2021/08/11 05:13:41;;;;;;;8.50;6.20;;;;;;;17.34;71.66;100577.38;5047720;28;20053;-62
2021/08/11 05:16:09;;;;;;;8.25;5.18;;;;;;;17.33;71.19;100578.56;5036742;28;20072;-62
2021/08/11 05:18:36;;;;;;;7.45;5.40;;;;;;;17.31;71.33;100589.38;5041943;28;20502;-61
2021/08/11 05:21:03;;;;;;;9.00;5.00;;;;;;;17.32;70.99;100593.00;5047732;28;20153;-62
2021/08/11 05:23:31;;;;;;;9.05;4.90;;;;;;;17.24;71.15;100594.78;5049649;28;20049;-62
2021/08/11 05:25:58;;;;;;;8.68;5.72;;;;;;;17.27;71.29;100585.63;5050176;28;20080;-62
2021/08/11 05:28:27;;;;;;;9.45;6.00;;;;;;;17.31;71.13;100586.53;5056306;28;20057;-62
2021/08/11 05:30:54;;;;;;;9.95;6.05;;;;;;;17.38;71.58;100594.38;5056230;28;20053;-62
2021/08/11 05:33:22;;;;;;;12.00;6.97;;;;;;;17.45;71.16;100597.41;5045958;28;20057;-61
2021/08/11 05:35:49;;;;;;;11.18;6.57;;;;;;;17.49;71.35;100594.69;5055942;28;20056;-62
2021/08/11 05:38:16;;;;;;;9.43;7.13;;;;;;;17.55;71.32;100602.50;5055275;28;20057;-62
2021/08/11 05:40:44;;;;;;;13.30;8.15;;;;;;;17.53;71.87;100590.78;5056112;28;20049;-61
2021/08/11 05:43:11;;;;;;;14.80;8.77;;;;;;;17.62;71.71;100588.66;5056059;28;20061;-61
2021/08/11 05:45:40;;;;;;;8.95;6.20;;;;;;;17.68;71.39;100588.38;5041673;28;20406;-62
2021/08/11 05:48:07;;;;;;;9.97;6.17;;;;;;;17.71;71.00;100588.47;5036273;28;20430;-62
2021/08/11 05:50:34;;;;;;;8.38;6.07;;;;;;;17.74;70.66;100596.19;5044681;28;20850;-62
2021/08/11 05:53:02;;;;;;;7.90;5.82;;;;;;;17.80;71.82;100606.03;5035682;28;20049;-58
2021/08/11 05:55:30;;;;;;;9.13;6.20;;;;;;;17.94;72.15;100599.19;5052020;28;20053;-60
2021/08/11 05:57:57;;;;;;;8.02;5.55;;;;;;;18.14;71.41;100606.59;5055931;28;20068;-59
2021/08/11 06:00:25;;;;;;;9.18;6.78;;;;;;;18.32;70.78;100609.84;5039386;28;20504;-60
2021/08/11 06:02:56;;;;;;;9.98;7.30;;;;;;;18.53;69.73;100606.75;5035792;28;20489;-60
2021/08/11 06:05:24;;;;;;;10.38;7.38;;;;;;;18.72;69.37;100606.00;5035989;28;20061;-59
2021/08/11 06:07:51;;;;;;;13.23;9.98;;;;;;;18.73;69.55;100606.81;5035856;28;20621;-60
2021/08/11 06:10:18;;;;;;;12.68;9.35;;;;;;;18.81;69.64;100614.28;5046527;28;20417;-60
2021/08/11 06:12:51;;;;;;;14.90;10.63;;;;;;;19.03;69.22;100622.06;5041930;28;20053;-60
2021/08/11 06:15:19;;;;;;;16.98;11.52;;;;;;;19.35;68.67;100626.81;5054256;28;20057;-60
2021/08/11 06:17:47;;;;;;;16.20;11.35;;;;;;;19.44;68.36;100619.75;5054976;28;20053;-57
2021/08/11 06:20:18;;;;;;;16.95;11.27;;;;;;;19.72;67.83;100632.03;5047111;28;20060;-59
2021/08/11 06:22:46;;;;;;;16.17;10.68;;;;;;;19.92;67.28;100639.31;5053590;28;20049;-57
2021/08/11 06:25:15;;;;;;;15.65;10.63;;;;;;;19.83;67.66;100633.88;5050165;28;20379;-60
2021/08/11 06:27:42;;;;;;;15.43;11.20;;;;;;;20.14;66.85;100640.53;5036286;28;20057;-57
2021/08/11 06:30:11;;;;;;;14.57;10.57;;;;;;;20.43;65.98;100638.19;5039341;28;20060;-60
2021/08/11 06:32:39;;;;;;;14.23;10.48;;;;;;;20.60;65.79;100640.56;5051424;28;20991;-60
2021/08/11 06:35:08;;;;;;;15.57;10.98;;;;;;;20.82;65.47;100640.91;5042972;28;20049;-59
2021/08/11 06:37:44;;;;;;;21.50;14.30;;;;;;;20.01;67.72;100648.38;5035379;28;20053;-60
2021/08/11 06:40:13;;;;;;;23.98;16.92;;;;;;;19.09;71.00;100639.56;5041507;28;20061;-60
2021/08/11 06:42:40;;;;;;;23.52;16.05;;;;;;;19.27;70.60;100642.78;5041603;28;20057;-58
2021/08/11 06:45:09;;;;;;;24.55;16.50;;;;;;;19.45;69.94;100638.34;5049983;28;20057;-61
2021/08/11 06:47:37;;;;;;;23.13;15.98;;;;;;;19.63;69.26;100643.53;5052718;28;20075;-61
2021/08/11 06:50:05;;;;;;;23.33;16.27;;;;;;;20.10;67.69;100642.47;5042267;28;20059;-61
2021/08/11 06:52:34;;;;;;;23.05;14.93;;;;;;;20.26;66.77;100639.53;5037027;28;20057;-61
2021/08/11 06:55:05;;;;;;;20.25;13.75;;;;;;;20.54;66.46;100642.06;5048083;28;20053;-61
2021/08/11 06:57:33;;;;;;;21.35;14.82;;;;;;;20.50;66.03;100641.16;5053520;28;20072;-61
2021/08/11 07:00:00;;;;;;;20.02;14.20;;;;;;;20.43;66.21;100644.69;5046935;28;20067;-61
2021/08/11 07:02:27;;;;;;;20.27;13.23;;;;;;;20.41;65.66;100641.44;5053095;28;20056;-61
2021/08/11 07:04:55;;;;;;;17.90;13.18;;;;;;;20.31;65.73;100652.56;5050946;28;20405;-61
2021/08/11 07:07:22;;;;;;;19.98;12.85;;;;;;;20.13;66.90;100653.03;5052013;28;20486;-61
2021/08/11 07:09:49;;;;;;;16.23;12.90;;;;;;;20.51;66.19;100645.63;5047007;28;20835;-61
2021/08/11 07:12:18;;;;;;;16.38;12.02;;;;;;;20.60;65.36;100648.22;5048546;28;20410;-62
2021/08/11 07:14:47;;;;;;;15.43;12.38;;;;;;;20.81;65.06;100642.09;5051401;28;20064;-61
2021/08/11 07:17:15;;;;;;;18.50;13.30;;;;;;;20.86;65.17;100641.78;5049070;28;20057;-61
2021/08/11 07:19:42;;;;;;;16.88;12.45;;;;;;;20.90;64.03;100645.50;5046273;28;20052;-61
2021/08/11 07:22:10;;;;;;;15.13;11.43;;;;;;;21.17;63.52;100640.63;5049963;28;20486;-60
2021/08/11 07:24:38;;;;;;;15.88;12.60;;;;;;;21.53;62.04;100641.16;5042099;28;20049;-61
2021/08/11 07:27:06;;;;;;;15.35;11.18;;;;;;;22.08;61.00;100641.38;5051265;28;20057;-61
2021/08/11 07:29:34;;;;;;;14.15;10.02;;;;;;;22.76;58.37;100646.06;5046435;28;20057;-61
2021/08/11 07:32:02;;;;;;;14.18;11.05;;;;;;;22.72;57.68;100642.38;5051215;28;20060;-61
2021/08/11 07:34:29;;;;;;;13.35;9.98;;;;;;;23.05;56.72;100647.13;5050791;28;20052;-60
2021/08/11 07:36:56;;;;;;;11.75;9.52;;;;;;;23.67;54.38;100644.22;5051673;28;20060;-62
2021/08/11 07:39:23;;;;;;;11.15;9.05;;;;;;;23.93;54.08;100650.00;5045677;28;20056;-62
2021/08/11 07:41:51;;;;;;;9.25;7.82;;;;;;;24.89;51.37;100655.84;5050999;28;20053;-62
2021/08/11 07:44:18;;;;;;;9.13;7.15;;;;;;;25.12;49.70;100646.03;5038664;28;20061;-62
2021/08/11 07:46:47;;;;;;;8.80;7.50;;;;;;;25.45;49.00;100653.31;5049369;28;20060;-62
2021/08/11 07:49:14;;;;;;;11.50;7.85;;;;;;;25.95;47.51;100651.50;5048584;28;20049;-62
2021/08/11 07:51:42;;;;;;;9.63;7.90;;;;;;;26.06;47.16;100649.38;5041079;28;20055;-62
2021/08/11 07:54:09;;;;;;;9.13;7.60;;;;;;;26.71;46.50;100655.47;5050815;28;20049;-62
2021/08/11 07:56:37;;;;;;;10.48;7.35;;;;;;;27.28;44.06;100662.75;5052899;28;20060;-62
2021/08/11 07:59:04;;;;;;;14.45;8.82;;;;;;;27.94;42.96;100662.34;5052451;28;20053;-62
2021/08/11 08:01:31;;;;;;;10.45;8.25;;;;;;;28.42;42.17;100654.69;5052277;28;20536;-62
2021/08/11 08:04:00;;;;;;;7.75;6.40;;;;;;;29.45;40.22;100671.38;5052788;28;20421;-62
2021/08/11 08:06:27;;;;;;;11.63;7.78;;;;;;;28.73;41.20;100664.06;5053509;28;20044;-62
2021/08/11 08:08:55;;;;;;;9.48;7.55;;;;;;;29.90;38.44;100659.41;5052999;28;20079;-62
2021/08/11 08:11:22;;;;;;;10.38;7.05;;;;;;;31.03;36.97;100652.63;5049912;28;20053;-62
2021/08/11 08:13:52;;;;;;;9.07;6.75;;;;;;;31.69;35.48;100653.28;5048405;28;20128;-62
2021/08/11 08:16:19;;;;;;;8.95;7.55;;;;;;;32.53;33.94;100664.69;5033238;28;20054;-62
2021/08/11 08:18:47;;;;;;;8.27;7.40;;;;;;;32.87;31.81;100657.38;5037206;28;20048;-62
2021/08/11 08:21:15;;;;;;;8.40;7.47;;;;;;;32.99;31.92;100659.44;5041082;28;20057;-63
2021/08/11 08:23:42;;;;;;;;;;;;;;;33.30;31.85;100653.00;5036395;28;20072;-62
2021/08/11 08:26:09;;;;;;;9.05;7.68;;;;;;;33.80;31.06;100654.03;5053280;28;19921;-62
2021/08/11 08:28:37;;;;;;;9.05;7.40;;;;;;;34.14;30.58;100653.13;5052712;28;20053;-62
2021/08/11 08:31:04;;;;;;;7.75;6.95;;;;;;;34.99;29.60;100647.16;5052731;28;20056;-62
2021/08/11 08:33:31;;;;;;;7.32;6.63;;;;;;;34.90;30.21;100639.28;5052128;28;20045;-62
2021/08/11 08:35:59;;;;;;;7.55;6.75;;;;;;;35.92;28.14;100640.03;5046645;28;20052;-63
2021/08/11 08:38:27;;;;;;;8.38;6.68;;;;;;;36.72;26.48;100634.88;5032442;28;20064;-63
2021/08/11 08:40:55;;;;;;;10.13;6.53;;;;;;;37.00;26.49;100643.41;5032459;28;20618;-63
2021/08/11 08:43:22;;;;;;;7.68;6.65;;;;;;;37.34;25.67;100647.84;5046635;28;20052;-62
2021/08/11 08:45:50;;;;;;;8.23;7.00;;;;;;;37.10;25.28;100647.88;5033889;28;20053;-63
2021/08/11 08:48:17;;;;;;;7.50;6.25;;;;;;;36.68;26.65;100645.88;5032699;28;20057;-63
2021/08/11 08:50:48;;;;;;;7.35;6.65;;;;;;;36.91;25.90;100646.38;5033089;28;20060;-63
2021/08/11 08:53:21;;;;;;;7.30;6.18;;;;;;;37.79;24.92;100645.03;5031978;28;20478;-63
2021/08/11 08:55:52;;;;;;;6.88;6.07;;;;;;;38.15;23.81;100637.19;5036160;28;20057;-63
2021/08/11 08:58:20;;;;;;;6.43;5.82;;;;;;;37.40;24.39;100635.53;5033316;28;20053;-63
2021/08/11 09:00:48;;;;;;;6.78;6.07;;;;;;;36.40;25.63;100639.41;5052852;28;20405;-63
2021/08/11 09:03:29;;;;;;;6.10;5.50;;;;;;;35.08;27.94;100643.47;5053035;28;20063;-63
2021/08/11 09:05:56;;;;;;;6.82;5.80;;;;;;;33.93;28.76;100645.28;5031291;28;20057;-63
2021/08/11 09:08:23;;;;;;;7.45;6.60;;;;;;;33.68;30.52;100643.34;5034031;28;20049;-63
2021/08/11 09:10:52;;;;;;;6.38;5.78;;;;;;;33.47;30.47;100644.94;5052879;28;20374;-63
2021/08/11 09:13:20;;;;;;;;;;;;;;;33.60;30.02;100642.84;5053015;28;20053;-63
2021/08/11 09:15:50;;;;;;;6.47;5.72;;;;;;;33.57;29.03;100647.44;5038493;28;19920;-63
2021/08/11 09:18:18;;;;;;;6.28;5.68;;;;;;;33.62;29.24;100645.25;5033027;28;20049;-63
2021/08/11 09:20:47;;;;;;;;;;;;;;;33.64;29.83;100648.47;5053611;28;20057;-63
2021/08/11 09:23:15;;;;;;;6.35;5.45;;;;;;;34.11;29.10;100641.69;5051864;28;19920;-63
2021/08/11 09:26:03;;;;;;;7.35;5.75;;;;;;;34.95;27.97;100643.59;5033105;28;20060;-63
2021/08/11 09:28:33;;;;;;;6.55;5.80;;;;;;;34.54;28.96;100640.78;5033112;28;20050;-63
2021/08/11 09:31:00;;;;;;;7.38;5.47;;;;;;;34.23;29.77;100646.59;5032937;28;20479;-63
2021/08/11 09:33:29;;;;;;;6.57;5.97;;;;;;;36.03;26.88;100632.91;5033638;28;20057;-63
2021/08/11 09:36:11;;;;;;;7.15;5.47;;;;;;;37.51;25.34;100630.75;5049926;28;20418;-63
2021/08/11 09:38:54;;;;;;;5.82;5.22;;;;;;;38.26;23.82;100637.41;5051887;28;20052;-63
2021/08/11 09:41:25;;;;;;;5.60;5.10;;;;;;;39.81;21.36;100634.63;5052577;28;20056;-63
2021/08/11 09:44:04;;;;;;;4.82;4.32;;;;;;;41.15;18.86;100636.13;5048939;28;20064;-63
2021/08/11 09:46:31;;;;;;;4.30;3.90;;;;;;;41.30;20.10;100630.88;5041245;28;20056;-63
2021/08/11 09:48:59;;;;;;;6.18;4.50;;;;;;;38.77;22.32;100635.25;5052327;28;20052;-63
2021/08/11 09:51:27;;;;;;;3.95;3.42;;;;;;;37.86;23.35;100638.78;5052482;28;20067;-63
2021/08/11 09:53:54;;;;;;;6.57;4.00;;;;;;;37.02;23.60;100640.00;5050810;28;20045;-63
2021/08/11 09:56:32;;;;;;;5.40;4.37;;;;;;;36.07;25.20;100654.66;5052660;28;20061;-63
2021/08/11 09:59:03;;;;;;;4.88;4.22;;;;;;;34.78;25.64;100656.78;5051105;28;20908;-63
2021/08/11 10:01:30;;;;;;;4.85;4.35;;;;;;;33.45;27.84;100661.94;5052024;28;20061;-63
2021/08/11 10:04:00;;;;;;;5.03;4.43;;;;;;;33.15;28.84;100658.47;5046206;28;20383;-63
2021/08/11 10:06:28;;;;;;;5.63;4.57;;;;;;;32.44;29.72;100661.66;5049221;28;20064;-63
2021/08/11 10:08:56;;;;;;;6.10;4.70;;;;;;;33.01;28.95;100648.22;5051811;28;20382;-65
2021/08/11 10:11:37;;;;;;;4.55;4.00;;;;;;;34.27;27.15;100660.88;5052014;28;20053;-63
2021/08/11 10:14:06;;;;;;;5.28;4.45;;;;;;;34.23;27.63;100654.44;5055647;28;20047;-65
2021/08/11 10:16:34;;;;;;;5.25;4.40;;;;;;;33.83;28.13;100661.78;5056038;28;20057;-63
2021/08/11 10:19:04;;;;;;;5.03;4.40;;;;;;;33.23;28.24;100656.94;5049638;28;20049;-63
2021/08/11 10:21:34;;;;;;;4.97;4.18;;;;;;;32.88;29.71;100659.78;5035024;28;20057;-63
2021/08/11 10:24:02;;;;;;;6.00;4.35;;;;;;;32.26;31.06;100663.06;5042004;28;20048;-63
2021/08/11 10:26:30;;;;;;;4.43;3.50;;;;;;;32.08;30.93;100663.63;5055908;28;20053;-62
2021/08/11 10:28:59;;;;;;;5.03;4.20;;;;;;;31.64;30.82;100662.47;5049389;28;20053;-62
2021/08/11 10:31:26;;;;;;;4.63;4.20;;;;;;;32.25;30.38;100670.06;5039636;28;20053;-62
2021/08/11 10:33:54;;;;;;;4.32;3.83;;;;;;;33.86;27.97;100672.38;5040596;28;20379;-63
2021/08/11 10:36:23;;;;;;;3.60;3.30;;;;;;;34.25;27.11;100677.91;5055401;28;20052;-62
2021/08/11 10:38:51;;;;;;;4.47;3.75;;;;;;;33.96;27.42;100673.25;5054321;28;20359;-62
2021/08/11 10:41:20;;;;;;;4.70;3.67;;;;;;;35.61;24.54;100668.41;5047971;28;20398;-63
2021/08/11 10:43:47;;;;;;;5.45;4.95;;;;;;;36.55;23.45;100665.59;5048970;28;20493;-63
2021/08/11 10:46:18;;;;;;;4.90;4.40;;;;;;;37.80;21.95;100658.28;5048351;28;20474;-62
2021/08/11 10:49:00;;;;;;;4.68;4.15;;;;;;;37.70;22.17;100662.56;5054750;28;20045;-62
2021/08/11 10:51:37;;;;;;;5.35;4.47;;;;;;;36.08;24.46;100673.66;5042534;28;20049;-62
2021/08/11 10:54:06;;;;;;;5.47;4.88;;;;;;;35.76;24.89;100672.28;5052919;28;20052;-62
2021/08/11 10:56:47;;;;;;;5.18;4.68;;;;;;;35.65;25.49;100669.09;5052045;28;20048;-61
2021/08/11 10:59:48;;;;;;;5.20;4.70;;;;;;;35.88;25.84;100667.59;5044618;28;20045;-62
2021/08/11 11:02:49;;;;;;;4.45;3.47;;;;;;;34.66;25.59;100670.06;5053351;28;20418;-62
2021/08/11 11:06:04;;;;;;;3.50;2.83;;;;;;;34.22;25.96;100681.75;5008441;28;20399;-62
2021/08/11 11:08:36;;;;;;;4.05;3.65;;;;;;;36.77;22.25;100669.06;5054000;28;20410;-62
2021/08/11 11:11:42;;;;;;;4.38;2.97;;;;;;;37.36;22.48;100670.63;5044865;28;20057;-64
2021/08/11 11:14:55;;;;;;;4.47;3.22;;;;;;;39.18;20.06;100671.03;5041966;28;20048;-62
2021/08/11 11:17:27;;;;;;;4.10;3.33;;;;;;;39.45;20.59;100663.16;5053224;28;20414;-62
2021/08/11 11:20:28;;;;;;;3.63;3.33;;;;;;;41.66;19.71;100653.84;5051672;28;20490;-62
2021/08/11 11:23:00;;;;;;;3.85;2.97;;;;;;;40.60;19.89;100663.72;5035633;28;20057;-62
2021/08/11 11:25:55;;;;;;;3.95;3.55;;;;;;;41.46;17.95;100660.72;5048163;28;20056;-62
2021/08/11 11:29:02;;;;;;;3.50;3.20;;;;;;;42.07;18.80;100660.03;5037607;28;20061;-62
2021/08/11 11:31:34;;;;;;;4.13;3.42;;;;;;;43.33;16.87;100656.34;5054313;28;20053;-63
2021/08/11 11:34:33;;;;;;;5.07;3.40;;;;;;;43.64;16.36;100652.16;5052189;28;20045;-62
2021/08/11 11:37:28;;;;;;;4.47;3.58;;;;;;;45.06;14.58;100649.50;5049125;28;20057;-62
2021/08/11 11:40:05;;;;;;;3.78;2.88;;;;;;;44.78;15.52;100656.50;5047211;28;20509;-62
2021/08/11 11:42:32;;;;;;;3.47;3.17;;;;;;;44.42;15.81;100652.06;5053470;28;20060;-61
2021/08/11 11:45:00;;;;;;;4.13;3.72;;;;;;;43.91;15.27;100653.31;5053839;28;20060;-62
2021/08/11 11:47:48;;;;;;;;;;;;;;;43.76;15.62;100641.94;5046486;28;20414;-61
2021/08/11 11:50:27;;;;;;;3.42;3.13;;;;;;;44.48;15.13;100641.06;5049651;28;19928;-62
2021/08/11 11:52:58;;;;;;;3.15;2.85;;;;;;;42.39;16.35;100639.25;5053708;28;20053;-62
2021/08/11 11:55:29;;;;;;;3.70;3.28;;;;;;;40.95;17.55;100640.84;5052702;28;20045;-62